トロント/ピアソン の空港の天気 - METARとTAF

トロント・ピアソン国際空港 ( CYYZ / YYZ ) - カナダ オンタリオ州トロント
飛行場実況気象(Metar)
観測時間09/28 04:00 EDT (09/28 08:00 UTC)
風向・風速南南東 3m/s
視程10km以上
天気現象
全天の8割程度の雲 雲底高度 1550m
気温19℃
湿度88%
気圧1006.6hPa
METARCYYZ 280800Z 15005KT 15SM BKN051 19/17 A2973 RMK SC5 SLP066 DENSITY ALT 1400FT
過去の天気等 Google飛行場航空写真 Wunderground天気予報

過去48時間のMETAR

飛行場予報(TAF)
発表時間: 9/28 01:38 EDT (9/28 05:38 UTC)
予報対象時間: 28日2時 EDT ~ 29日8時 EDT
風向・風速南南東 4m/s
視程10km以上
全天の8割程度の雲 雲底高度 1520m
28日8時 EDT ~ 28日12時 EDT に一時的に
全天を覆う雲 雲底高度 610m
28日8時 EDT ~ 28日10時 EDT に徐々に
風向・風速南南東 7m/s
28日14時 EDT から
風向・風速南南東 7m/s 瞬間風速 12m/s
視程10km以上
天気現象弱いしゅう雨
全天の8割程度の雲 雲底高度 1220m
28日23時 EDT から 確率 30% で
風向・風速不定 8m/s 瞬間風速 13m/s
視程8850m
天気現象雷雨 もや
全天の8割程度の雲 雲底高度 180m
全天を覆う積乱雲 雲底高度 300m
29日2時 EDT から
風向・風速西 6m/s 瞬間風速 11m/s
視程8050m
天気現象もや
全天の8割程度の雲 雲底高度 240m
全天の8割程度の雲 雲底高度 610m
29日7時 EDT から
風向・風速西 6m/s
視程10km以上
天気現象もや
全天を覆う雲 雲底高度 610m
TAF CYYZ 280538Z 2806/2912 15007KT P6SM BKN050
TEMPO 2812/2816 OVC020
BECMG 2812/2814 16013KT
FM281800 16013G23KT P6SM -SHRA BKN040
PROB30 2903/2906 VRB15G25KT 11/2SM TSRA BR BKN006 OVC010CB
FM290600 26012G22KT 5SM BR BKN008 BKN020
FM291100 26012KT 6SM BR OVC020 RMK NXT FCST BY 280900Z